ENGMENRY

Guest
Details From ENGM - Oslo Gardermoen
To ENRY - RYGGE
Flight Number -
Tags generated
Created
Modified
Stats Distance 50 nm / 93 km
Max Altitude 0 ft / 0 m
Waypoints 3
Social Downloads 0
Likes 0
Share VATSIM

Download

Looking for another format? Having issues loading an existing format? Contact us
Advertisement - Login to hide

Notes

Basic altitude profile: - Ascent Rate: 500ft/min - Ascent Speed: 120kts - Cruise Altitude: 7000ft - Cruise Speed: 160kts - Descent Rate: 500ft/min - Descent Speed: 120kts Options: - Use NATs: yes - Use PACOTS: yes - Use low airways: yes - Use high airways: yes

Route

ENGM RYG ENRY

ID Type Via Altitude Latitude Longitude Leg Dist Tot Dist Heading (true) Name
O ENGM APT - 0 ft / 0 m 60.19451˚ 11.09900˚ - 0 nm - Oslo Gardermoen
RYG VOR - 0 ft / 0 m 59.37923˚ 10.77961˚ 49 nm 49 nm 191° / 191° -
O ENRY APT - 0 ft / 0 m 59.37879˚ 10.78543˚ 0 nm 50 nm 98° / 98° RYGGE

Altitude Profile

Advertisement - Login to hide

ENGM

Details ICAO ENGM (OSL)
Name Oslo Gardermoen
Region Norway
Timezone Europe/Oslo (UTC+1.0)
Stats Elevation 681 ft / 208 m (AMSL)
Location 60.194507° 11.098998°
Runways 2
Magnetic Variation 3.402° E

METAR

ENGM 201450Z 03004KT 9999 -SN BKN010 M04/M05 Q1004 TEMPO 4000 -SN BKN012

Decode

TAF

TAF ENGM 201100Z 2012/2112 06005KT 9999 -SN SCT004 BKN015 TEMPO 2012/2024 2000 -SN BR OVC004 TEMPO 2100/2112 BKN008

Decode

Departure Runways

ID Width Length Bearing (true) Bearing (mag) Surface Threshold Offset Overrun Length
01L 148 ft / 45 m 12,144 ft / 3,702 m 15.89° 12.49° Concrete 0 ft / 0 m 499 ft / 152 m
01R 148 ft / 45 m 10,014 ft / 3,052 m 15.89° 12.49° Concrete 0 ft / 0 m 499 ft / 152 m
19L 148 ft / 45 m 10,014 ft / 3,052 m 195.91° 192.51° Concrete 0 ft / 0 m 466 ft / 142 m
19R 148 ft / 45 m 12,144 ft / 3,702 m 195.91° 192.51° Concrete 0 ft / 0 m 482 ft / 147 m

ENRY

Details ICAO ENRY (RYG)
Name RYGGE
Region Norway
Timezone Europe/Oslo (UTC+1.0)
Stats Elevation 174 ft / 53 m (AMSL)
Location 59.378793° 10.785426°
Runways 1
Magnetic Variation 3.235° E

METAR

ENRY 201450Z 06008KT 7000 -SN BKN010 M01/M03 Q1004

Decode

TAF

TAF AMD ENRY 201217Z 2012/2112 09010KT 9999 SCT008 BKN015 TEMPO 2012/2024 1200 SHSN VV006 BECMG 2101/2103 03008KT

Decode

Destination Runways

ID Width Length Bearing (true) Bearing (mag) Surface Threshold Offset Overrun Length
12 148 ft / 45 m 7,990 ft / 2,435 m 116.83° 113.60° Asphalt 0 ft / 0 m 898 ft / 274 m
30 148 ft / 45 m 7,990 ft / 2,435 m 296.86° 293.63° Asphalt 0 ft / 0 m 898 ft / 274 m

Approach Navaids

Runway Type Ident Frequency Range Bearing (true) Bearing (mag) Slope Elevation
30 Localiser RY 109.10 MHz 18 nm / 33 km 296.79° 293.56° - 173 ft / 53 m (AMSL)
30 Glidescope RY 109.10 MHz 10 nm / 19 km 296.84° 293.61° 3.10° 217 ft / 66 m (AMSL)
30 DME RY 109.10 MHz 18 nm / 33 km - - - 174 ft / 53 m (AMSL)

Popular Alternatives